Terminal Aerodrome Forecast
Issued by NWS

Home | Current Version | Previous Version | Text Only | Print | Product List | Glossary On
Versions: 1 2 3 4 5 6 7 8 9 10 11 12 13 14 15 16 17
000
FTUS46 KMTR 032336
TAFSNS
TAF
KSNS 032336Z 0400/0424 27014G21KT P6SM SKC
     FM040200 27010KT P6SM SKC
     FM040800 27007KT P6SM BKN015
     FM041000 25006KT P6SM OVC012
     FM041700 27010KT P6SM SCT200
     FM042200 27010G16KT P6SM SCT200=

USA.gov is the U.S. government's official web portal to all federal, state and local government web resources and services.